Yellow Pine, Alabama
Current Conditions -  °F | °C
As of 3:56 AM on Saturday 22 Nov 2014 (Local Time) from KMOB Reporting Station
Clear Clear  
Wind Chill: 44°   Ceiling: Unl
Heat Index: 48°   Visibility: 10mi
Dew Point: 42°   Wind: 9mph
Humidity: 80%   Direction: 70°ENE
Pressure: 30.28"   Gusts: NA
Location:  31.3356°N, 88.3227°W
Report Text: KMOB 220956Z AUTO 07008KT 10SM CLR 09/06 A3028 RMK AO2 SLP251 T00890056
Loading
Personal Weather Stations






























Interactive Weather Map New forecast layout! Learn more

10-Day Weather Forecast

Advertisements
Track Severe Weather on mobile